sensor_id;sensor_type;location;lat;lon;timestamp;temperature;humidity
324;DHT22;149;51.094;17.002;2023-03-11T00:00:30;9.90;99.90
324;DHT22;149;51.094;17.002;2023-03-11T00:03:00;9.70;99.90
324;DHT22;149;51.094;17.002;2023-03-11T00:05:32;9.80;99.90
324;DHT22;149;51.094;17.002;2023-03-11T00:08:00;9.90;99.90
324;DHT22;149;51.094;17.002;2023-03-11T00:10:42;10.00;99.90
324;DHT22;149;51.094;17.002;2023-03-11T00:13:12;10.00;99.90
324;DHT22;149;51.094;17.002;2023-03-11T00:15:40;9.90;99.90
324;DHT22;149;51.094;17.002;2023-03-11T00:18:07;9.80;99.90
324;DHT22;149;51.094;17.002;2023-03-11T00:20:37;9.80;99.90
324;DHT22;149;51.094;17.002;2023-03-11T00:23:06;9.90;99.90
324;DHT22;149;51.094;17.002;2023-03-11T00:25:35;9.90;99.90
324;DHT22;149;51.094;17.002;2023-03-11T00:28:04;9.80;99.90
324;DHT22;149;51.094;17.002;2023-03-11T00:30:31;9.80;99.90
324;DHT22;149;51.094;17.002;2023-03-11T00:32:59;9.70;99.90
324;DHT22;149;51.094;17.002;2023-03-11T00:35:28;9.70;99.90
324;DHT22;149;51.094;17.002;2023-03-11T00:37:58;9.60;99.90
324;DHT22;149;51.094;17.002;2023-03-11T00:40:29;9.50;99.90
324;DHT22;149;51.094;17.002;2023-03-11T00:42:57;9.50;99.90
324;DHT22;149;51.094;17.002;2023-03-11T00:45:25;9.50;99.90
324;DHT22;149;51.094;17.002;2023-03-11T00:47:52;9.50;99.90
324;DHT22;149;51.094;17.002;2023-03-11T00:50:26;9.50;99.90
324;DHT22;149;51.094;17.002;2023-03-11T00:52:54;9.60;99.90
324;DHT22;149;51.094;17.002;2023-03-11T00:55:24;9.20;99.90
324;DHT22;149;51.094;17.002;2023-03-11T00:57:57;9.10;99.90
324;DHT22;149;51.094;17.002;2023-03-11T01:00:25;9.20;99.90
324;DHT22;149;51.094;17.002;2023-03-11T01:02:53;9.20;99.90
324;DHT22;149;51.094;17.002;2023-03-11T01:05:26;9.10;99.90
324;DHT22;149;51.094;17.002;2023-03-11T01:07:53;9.00;99.90
324;DHT22;149;51.094;17.002;2023-03-11T01:10:20;9.10;99.90
324;DHT22;149;51.094;17.002;2023-03-11T01:12:47;9.10;99.90
324;DHT22;149;51.094;17.002;2023-03-11T01:15:34;9.00;99.90
324;DHT22;149;51.094;17.002;2023-03-11T01:18:02;8.90;99.90
324;DHT22;149;51.094;17.002;2023-03-11T01:20:30;9.00;99.90
324;DHT22;149;51.094;17.002;2023-03-11T01:22:58;9.00;99.90
324;DHT22;149;51.094;17.002;2023-03-11T01:25:25;8.80;99.90
324;DHT22;149;51.094;17.002;2023-03-11T01:27:52;8.80;99.90
324;DHT22;149;51.094;17.002;2023-03-11T01:30:21;8.60;99.90
324;DHT22;149;51.094;17.002;2023-03-11T01:32:49;8.60;99.90
324;DHT22;149;51.094;17.002;2023-03-11T01:35:20;8.60;99.90
324;DHT22;149;51.094;17.002;2023-03-11T01:37:47;8.50;99.90
324;DHT22;149;51.094;17.002;2023-03-11T01:42:52;8.30;99.90
324;DHT22;149;51.094;17.002;2023-03-11T01:48:13;8.20;99.90
324;DHT22;149;51.094;17.002;2023-03-11T01:50:42;8.10;99.90
324;DHT22;149;51.094;17.002;2023-03-11T01:53:10;8.10;99.90
324;DHT22;149;51.094;17.002;2023-03-11T01:55:38;8.10;99.90
324;DHT22;149;51.094;17.002;2023-03-11T01:58:07;8.00;99.90
324;DHT22;149;51.094;17.002;2023-03-11T02:00:38;8.00;99.90
324;DHT22;149;51.094;17.002;2023-03-11T02:03:13;7.90;99.90
324;DHT22;149;51.094;17.002;2023-03-11T02:05:41;8.00;99.90
324;DHT22;149;51.094;17.002;2023-03-11T02:08:10;8.10;99.90
324;DHT22;149;51.094;17.002;2023-03-11T02:10:40;8.00;99.90
324;DHT22;149;51.094;17.002;2023-03-11T02:13:09;8.00;99.90
324;DHT22;149;51.094;17.002;2023-03-11T02:15:38;8.00;99.90
324;DHT22;149;51.094;17.002;2023-03-11T02:18:06;8.00;99.90
324;DHT22;149;51.094;17.002;2023-03-11T02:20:51;8.10;99.90
324;DHT22;149;51.094;17.002;2023-03-11T02:23:23;8.00;99.90
324;DHT22;149;51.094;17.002;2023-03-11T02:28:52;8.00;99.90
324;DHT22;149;51.094;17.002;2023-03-11T02:31:20;7.90;99.90
324;DHT22;149;51.094;17.002;2023-03-11T02:33:52;8.00;99.90
324;DHT22;149;51.094;17.002;2023-03-11T02:36:40;8.10;99.90
324;DHT22;149;51.094;17.002;2023-03-11T02:39:08;8.20;99.90
324;DHT22;149;51.094;17.002;2023-03-11T02:41:42;8.00;99.90
324;DHT22;149;51.094;17.002;2023-03-11T02:44:13;8.10;99.90
324;DHT22;149;51.094;17.002;2023-03-11T02:46:44;8.00;99.90
324;DHT22;149;51.094;17.002;2023-03-11T02:49:13;8.00;99.90
324;DHT22;149;51.094;17.002;2023-03-11T02:51:40;8.00;99.90
324;DHT22;149;51.094;17.002;2023-03-11T02:54:07;8.00;99.90
324;DHT22;149;51.094;17.002;2023-03-11T02:56:34;8.00;99.90
324;DHT22;149;51.094;17.002;2023-03-11T02:59:01;8.20;99.90
324;DHT22;149;51.094;17.002;2023-03-11T03:01:28;8.00;99.90
324;DHT22;149;51.094;17.002;2023-03-11T03:03:55;7.90;99.90
324;DHT22;149;51.094;17.002;2023-03-11T03:06:22;7.90;99.90
324;DHT22;149;51.094;17.002;2023-03-11T03:08:50;7.70;99.90
324;DHT22;149;51.094;17.002;2023-03-11T03:11:17;7.20;99.90
324;DHT22;149;51.094;17.002;2023-03-11T03:13:44;6.60;99.90
324;DHT22;149;51.094;17.002;2023-03-11T03:16:13;6.20;99.90
324;DHT22;149;51.094;17.002;2023-03-11T03:18:40;5.80;99.90
324;DHT22;149;51.094;17.002;2023-03-11T03:21:09;5.60;99.90
324;DHT22;149;51.094;17.002;2023-03-11T03:23:36;5.50;99.90
324;DHT22;149;51.094;17.002;2023-03-11T03:26:04;5.40;99.90
324;DHT22;149;51.094;17.002;2023-03-11T03:28:32;5.50;99.90
324;DHT22;149;51.094;17.002;2023-03-11T03:31:06;5.30;99.90
324;DHT22;149;51.094;17.002;2023-03-11T03:33:33;5.20;99.90
324;DHT22;149;51.094;17.002;2023-03-11T03:36:00;5.20;99.90
324;DHT22;149;51.094;17.002;2023-03-11T03:38:31;5.10;99.90
324;DHT22;149;51.094;17.002;2023-03-11T03:40:58;5.20;99.90
324;DHT22;149;51.094;17.002;2023-03-11T03:43:25;5.00;99.90
324;DHT22;149;51.094;17.002;2023-03-11T03:45:59;5.00;99.90
324;DHT22;149;51.094;17.002;2023-03-11T03:48:27;4.90;99.90
324;DHT22;149;51.094;17.002;2023-03-11T03:50:54;4.90;99.90
324;DHT22;149;51.094;17.002;2023-03-11T03:53:21;4.80;99.90
324;DHT22;149;51.094;17.002;2023-03-11T03:55:48;4.70;99.90
324;DHT22;149;51.094;17.002;2023-03-11T03:58:16;4.80;99.90
324;DHT22;149;51.094;17.002;2023-03-11T04:00:43;4.60;99.90
324;DHT22;149;51.094;17.002;2023-03-11T04:03:10;4.60;99.90
324;DHT22;149;51.094;17.002;2023-03-11T04:05:37;4.60;99.90
324;DHT22;149;51.094;17.002;2023-03-11T04:08:04;4.60;99.90
324;DHT22;149;51.094;17.002;2023-03-11T04:10:31;4.50;99.90
324;DHT22;149;51.094;17.002;2023-03-11T04:12:58;4.40;99.90
324;DHT22;149;51.094;17.002;2023-03-11T04:15:25;4.40;99.90
324;DHT22;149;51.094;17.002;2023-03-11T04:17:52;4.20;99.90
324;DHT22;149;51.094;17.002;2023-03-11T04:20:19;4.20;99.90
324;DHT22;149;51.094;17.002;2023-03-11T04:22:48;4.10;99.90
324;DHT22;149;51.094;17.002;2023-03-11T04:25:15;4.10;99.90
324;DHT22;149;51.094;17.002;2023-03-11T04:27:42;4.10;99.90
324;DHT22;149;51.094;17.002;2023-03-11T04:30:12;4.10;99.90
324;DHT22;149;51.094;17.002;2023-03-11T04:32:39;4.00;99.90
324;DHT22;149;51.094;17.002;2023-03-11T04:35:06;3.90;99.90
324;DHT22;149;51.094;17.002;2023-03-11T04:37:34;3.90;99.90
324;DHT22;149;51.094;17.002;2023-03-11T04:40:01;4.00;99.90
324;DHT22;149;51.094;17.002;2023-03-11T04:42:28;3.70;99.90
324;DHT22;149;51.094;17.002;2023-03-11T04:44:55;3.70;99.90
324;DHT22;149;51.094;17.002;2023-03-11T04:47:21;3.60;99.90
324;DHT22;149;51.094;17.002;2023-03-11T04:49:49;3.50;99.90
324;DHT22;149;51.094;17.002;2023-03-11T04:52:16;3.50;99.90
324;DHT22;149;51.094;17.002;2023-03-11T04:54:43;3.40;99.90
324;DHT22;149;51.094;17.002;2023-03-11T04:57:10;3.30;99.90
324;DHT22;149;51.094;17.002;2023-03-11T04:59:36;3.30;99.90
324;DHT22;149;51.094;17.002;2023-03-11T05:02:03;3.10;99.90
324;DHT22;149;51.094;17.002;2023-03-11T05:04:31;3.20;99.90
324;DHT22;149;51.094;17.002;2023-03-11T05:06:57;3.00;99.90
324;DHT22;149;51.094;17.002;2023-03-11T05:09:24;2.90;99.90
324;DHT22;149;51.094;17.002;2023-03-11T05:11:52;2.90;99.90
324;DHT22;149;51.094;17.002;2023-03-11T05:14:19;2.90;99.90
324;DHT22;149;51.094;17.002;2023-03-11T05:16:45;3.00;99.90
324;DHT22;149;51.094;17.002;2023-03-11T05:19:12;2.80;99.90
324;DHT22;149;51.094;17.002;2023-03-11T05:22:01;2.70;99.90
324;DHT22;149;51.094;17.002;2023-03-11T05:24:28;2.80;99.90
324;DHT22;149;51.094;17.002;2023-03-11T05:26:56;2.70;99.90
324;DHT22;149;51.094;17.002;2023-03-11T05:29:24;2.70;99.90
324;DHT22;149;51.094;17.002;2023-03-11T05:31:51;2.70;99.90
324;DHT22;149;51.094;17.002;2023-03-11T05:34:18;2.70;99.90
324;DHT22;149;51.094;17.002;2023-03-11T05:36:45;2.70;99.90
324;DHT22;149;51.094;17.002;2023-03-11T05:39:12;2.70;99.90
324;DHT22;149;51.094;17.002;2023-03-11T05:41:39;2.70;99.90
324;DHT22;149;51.094;17.002;2023-03-11T05:44:06;2.70;99.90
324;DHT22;149;51.094;17.002;2023-03-11T05:46:34;2.70;99.90
324;DHT22;149;51.094;17.002;2023-03-11T05:49:01;2.60;99.90
324;DHT22;149;51.094;17.002;2023-03-11T05:51:28;2.60;99.90
324;DHT22;149;51.094;17.002;2023-03-11T05:53:55;2.70;99.90
324;DHT22;149;51.094;17.002;2023-03-11T05:56:22;2.60;99.90
324;DHT22;149;51.094;17.002;2023-03-11T05:58:49;2.50;99.90
324;DHT22;149;51.094;17.002;2023-03-11T06:01:17;2.50;99.90
324;DHT22;149;51.094;17.002;2023-03-11T06:03:45;2.40;99.90
324;DHT22;149;51.094;17.002;2023-03-11T06:06:13;2.40;99.90
324;DHT22;149;51.094;17.002;2023-03-11T06:08:40;2.40;99.90
324;DHT22;149;51.094;17.002;2023-03-11T06:11:12;2.40;99.90
324;DHT22;149;51.094;17.002;2023-03-11T06:13:39;2.40;99.90
324;DHT22;149;51.094;17.002;2023-03-11T06:16:07;2.20;99.90
324;DHT22;149;51.094;17.002;2023-03-11T06:18:34;2.20;99.90
324;DHT22;149;51.094;17.002;2023-03-11T06:21:02;2.20;99.90
324;DHT22;149;51.094;17.002;2023-03-11T06:23:30;2.10;99.90
324;DHT22;149;51.094;17.002;2023-03-11T06:25:58;2.10;99.90
324;DHT22;149;51.094;17.002;2023-03-11T06:28:27;2.20;99.90
324;DHT22;149;51.094;17.002;2023-03-11T06:30:54;2.20;99.90
324;DHT22;149;51.094;17.002;2023-03-11T06:33:26;2.00;99.90
324;DHT22;149;51.094;17.002;2023-03-11T06:36:00;2.00;99.90
324;DHT22;149;51.094;17.002;2023-03-11T06:38:27;1.90;99.90
324;DHT22;149;51.094;17.002;2023-03-11T06:41:01;2.10;99.90
324;DHT22;149;51.094;17.002;2023-03-11T06:43:29;1.90;99.90
324;DHT22;149;51.094;17.002;2023-03-11T06:45:57;1.90;99.90
324;DHT22;149;51.094;17.002;2023-03-11T06:48:27;1.90;99.90
324;DHT22;149;51.094;17.002;2023-03-11T06:50:58;2.00;99.90
324;DHT22;149;51.094;17.002;2023-03-11T06:53:27;1.90;99.90
324;DHT22;149;51.094;17.002;2023-03-11T06:56:05;1.90;99.90
324;DHT22;149;51.094;17.002;2023-03-11T06:58:34;1.90;99.90
324;DHT22;149;51.094;17.002;2023-03-11T07:01:11;1.90;99.90
324;DHT22;149;51.094;17.002;2023-03-11T07:03:38;2.00;99.90
324;DHT22;149;51.094;17.002;2023-03-11T07:06:13;2.00;99.90
324;DHT22;149;51.094;17.002;2023-03-11T07:08:42;2.00;99.90
324;DHT22;149;51.094;17.002;2023-03-11T07:11:13;2.00;99.90
324;DHT22;149;51.094;17.002;2023-03-11T07:13:40;1.90;99.90
324;DHT22;149;51.094;17.002;2023-03-11T07:16:13;2.00;99.90
324;DHT22;149;51.094;17.002;2023-03-11T07:18:42;2.00;99.90
324;DHT22;149;51.094;17.002;2023-03-11T07:21:11;2.00;99.90
324;DHT22;149;51.094;17.002;2023-03-11T07:23:40;1.90;99.90
324;DHT22;149;51.094;17.002;2023-03-11T07:26:08;1.90;99.90
324;DHT22;149;51.094;17.002;2023-03-11T07:28:36;1.90;99.90
324;DHT22;149;51.094;17.002;2023-03-11T07:31:11;1.80;99.90
324;DHT22;149;51.094;17.002;2023-03-11T07:33:39;1.80;99.90
324;DHT22;149;51.094;17.002;2023-03-11T07:36:08;1.80;99.90
324;DHT22;149;51.094;17.002;2023-03-11T07:38:36;1.80;99.90
324;DHT22;149;51.094;17.002;2023-03-11T07:41:04;1.80;99.90
324;DHT22;149;51.094;17.002;2023-03-11T07:43:32;1.80;99.90
324;DHT22;149;51.094;17.002;2023-03-11T07:46:11;1.80;99.90
324;DHT22;149;51.094;17.002;2023-03-11T07:48:39;1.80;99.90
324;DHT22;149;51.094;17.002;2023-03-11T07:53:44;1.60;99.90
324;DHT22;149;51.094;17.002;2023-03-11T07:56:12;1.70;99.90
324;DHT22;149;51.094;17.002;2023-03-11T07:58:40;1.70;99.90
324;DHT22;149;51.094;17.002;2023-03-11T08:01:16;1.70;99.90
324;DHT22;149;51.094;17.002;2023-03-11T08:03:45;1.80;99.90
324;DHT22;149;51.094;17.002;2023-03-11T08:06:22;1.80;99.90
324;DHT22;149;51.094;17.002;2023-03-11T08:08:50;1.80;99.90
324;DHT22;149;51.094;17.002;2023-03-11T08:11:18;1.80;99.90
324;DHT22;149;51.094;17.002;2023-03-11T08:13:47;1.90;99.90
324;DHT22;149;51.094;17.002;2023-03-11T08:16:16;1.90;99.90
324;DHT22;149;51.094;17.002;2023-03-11T08:18:45;1.90;99.90
324;DHT22;149;51.094;17.002;2023-03-11T08:21:15;1.90;99.90
324;DHT22;149;51.094;17.002;2023-03-11T08:23:43;1.90;99.90
324;DHT22;149;51.094;17.002;2023-03-11T08:26:14;1.90;99.90
324;DHT22;149;51.094;17.002;2023-03-11T08:28:42;1.90;99.90
324;DHT22;149;51.094;17.002;2023-03-11T08:31:18;1.90;99.90
324;DHT22;149;51.094;17.002;2023-03-11T08:33:47;2.00;99.90
324;DHT22;149;51.094;17.002;2023-03-11T08:36:16;3.20;99.90
324;DHT22;149;51.094;17.002;2023-03-11T08:38:44;2.00;99.90
324;DHT22;149;51.094;17.002;2023-03-11T08:41:12;2.10;99.90
324;DHT22;149;51.094;17.002;2023-03-11T08:43:40;2.00;99.90
324;DHT22;149;51.094;17.002;2023-03-11T08:46:54;2.00;99.90
324;DHT22;149;51.094;17.002;2023-03-11T08:49:03;2.00;99.90
324;DHT22;149;51.094;17.002;2023-03-11T08:51:32;2.10;99.90
324;DHT22;149;51.094;17.002;2023-03-11T08:54:00;2.10;99.90
324;DHT22;149;51.094;17.002;2023-03-11T08:56:27;2.20;99.90
324;DHT22;149;51.094;17.002;2023-03-11T08:58:54;2.10;99.90
324;DHT22;149;51.094;17.002;2023-03-11T09:01:21;2.00;99.90
324;DHT22;149;51.094;17.002;2023-03-11T09:03:50;2.10;99.90
324;DHT22;149;51.094;17.002;2023-03-11T09:06:17;2.10;99.90
324;DHT22;149;51.094;17.002;2023-03-11T09:08:45;2.00;99.90
324;DHT22;149;51.094;17.002;2023-03-11T09:11:13;2.30;99.90
324;DHT22;149;51.094;17.002;2023-03-11T09:13:41;2.10;99.90
324;DHT22;149;51.094;17.002;2023-03-11T09:16:13;2.10;99.90
324;DHT22;149;51.094;17.002;2023-03-11T09:18:40;2.00;99.90
324;DHT22;149;51.094;17.002;2023-03-11T09:21:08;2.30;99.90
324;DHT22;149;51.094;17.002;2023-03-11T09:23:36;2.00;99.90
324;DHT22;149;51.094;17.002;2023-03-11T09:26:03;2.00;99.90
324;DHT22;149;51.094;17.002;2023-03-11T09:28:30;1.90;99.90
324;DHT22;149;51.094;17.002;2023-03-11T09:30:59;2.00;99.90
324;DHT22;149;51.094;17.002;2023-03-11T09:33:27;2.20;99.90
324;DHT22;149;51.094;17.002;2023-03-11T09:35:54;2.40;99.90
324;DHT22;149;51.094;17.002;2023-03-11T09:38:20;2.60;99.90
324;DHT22;149;51.094;17.002;2023-03-11T09:41:07;2.60;99.90
324;DHT22;149;51.094;17.002;2023-03-11T09:43:54;2.60;99.90
324;DHT22;149;51.094;17.002;2023-03-11T09:49:42;2.30;99.90
324;DHT22;149;51.094;17.002;2023-03-11T09:52:19;2.10;99.90
324;DHT22;149;51.094;17.002;2023-03-11T09:54:52;2.20;99.90
324;DHT22;149;51.094;17.002;2023-03-11T09:57:25;2.00;99.90
324;DHT22;149;51.094;17.002;2023-03-11T09:59:54;1.70;99.90
324;DHT22;149;51.094;17.002;2023-03-11T10:05:20;2.00;99.90
324;DHT22;149;51.094;17.002;2023-03-11T10:10:26;2.20;99.90
324;DHT22;149;51.094;17.002;2023-03-11T10:13:04;2.30;99.90
324;DHT22;149;51.094;17.002;2023-03-11T10:24:32;3.00;99.90
324;DHT22;149;51.094;17.002;2023-03-11T10:27:14;3.00;99.90
324;DHT22;149;51.094;17.002;2023-03-11T10:30:02;2.90;99.90
324;DHT22;149;51.094;17.002;2023-03-11T10:32:55;3.10;99.90
324;DHT22;149;51.094;17.002;2023-03-11T10:35:38;3.20;99.90
324;DHT22;149;51.094;17.002;2023-03-11T10:38:15;3.30;99.90
324;DHT22;149;51.094;17.002;2023-03-11T10:40:46;3.50;99.90
324;DHT22;149;51.094;17.002;2023-03-11T10:43:18;3.80;99.90
324;DHT22;149;51.094;17.002;2023-03-11T10:45:47;3.70;99.90
324;DHT22;149;51.094;17.002;2023-03-11T10:48:19;3.80;99.90
324;DHT22;149;51.094;17.002;2023-03-11T10:50:51;3.70;99.90
324;DHT22;149;51.094;17.002;2023-03-11T10:53:23;3.60;99.90
324;DHT22;149;51.094;17.002;2023-03-11T10:55:57;3.50;99.90
324;DHT22;149;51.094;17.002;2023-03-11T11:03:52;3.70;99.90
324;DHT22;149;51.094;17.002;2023-03-11T11:16:58;4.60;99.90
324;DHT22;149;51.094;17.002;2023-03-11T11:19:25;4.50;99.90
324;DHT22;149;51.094;17.002;2023-03-11T11:21:55;4.20;99.90
324;DHT22;149;51.094;17.002;2023-03-11T11:24:30;3.60;99.90
324;DHT22;149;51.094;17.002;2023-03-11T11:27:23;3.40;99.90
324;DHT22;149;51.094;17.002;2023-03-11T11:32:40;3.50;99.90
324;DHT22;149;51.094;17.002;2023-03-11T11:35:14;3.90;99.90
324;DHT22;149;51.094;17.002;2023-03-11T11:37:51;4.20;99.90
324;DHT22;149;51.094;17.002;2023-03-11T11:40:30;4.30;99.90
324;DHT22;149;51.094;17.002;2023-03-11T11:43:05;4.10;99.90
324;DHT22;149;51.094;17.002;2023-03-11T11:45:41;3.70;99.90
324;DHT22;149;51.094;17.002;2023-03-11T11:48:47;3.50;99.90
324;DHT22;149;51.094;17.002;2023-03-11T11:51:20;3.50;99.90
324;DHT22;149;51.094;17.002;2023-03-11T11:54:14;3.80;99.90
324;DHT22;149;51.094;17.002;2023-03-11T11:56:44;4.10;99.90
324;DHT22;149;51.094;17.002;2023-03-11T11:59:20;4.40;99.90
324;DHT22;149;51.094;17.002;2023-03-11T12:02:03;4.50;99.90
324;DHT22;149;51.094;17.002;2023-03-11T12:04:53;4.40;99.90
324;DHT22;149;51.094;17.002;2023-03-11T12:07:27;4.50;99.90
324;DHT22;149;51.094;17.002;2023-03-11T12:10:15;4.20;99.90
324;DHT22;149;51.094;17.002;2023-03-11T12:18:37;4.80;99.90
324;DHT22;149;51.094;17.002;2023-03-11T12:21:24;5.00;99.90
324;DHT22;149;51.094;17.002;2023-03-11T12:26:43;5.10;99.90
324;DHT22;149;51.094;17.002;2023-03-11T12:29:27;4.90;99.90
324;DHT22;149;51.094;17.002;2023-03-11T12:31:56;4.90;99.90
324;DHT22;149;51.094;17.002;2023-03-11T12:34:26;4.70;99.90
324;DHT22;149;51.094;17.002;2023-03-11T12:36:57;4.60;99.90
324;DHT22;149;51.094;17.002;2023-03-11T12:39:31;4.80;99.90
324;DHT22;149;51.094;17.002;2023-03-11T12:44:45;4.70;99.90
324;DHT22;149;51.094;17.002;2023-03-11T12:47:16;5.10;99.90
324;DHT22;149;51.094;17.002;2023-03-11T12:52:20;5.20;99.90
324;DHT22;149;51.094;17.002;2023-03-11T13:08:22;3.40;99.90
324;DHT22;149;51.094;17.002;2023-03-11T13:10:51;3.70;99.90
324;DHT22;149;51.094;17.002;2023-03-11T13:13:40;4.00;99.90
324;DHT22;149;51.094;17.002;2023-03-11T13:21:55;4.00;99.90
324;DHT22;149;51.094;17.002;2023-03-11T13:35:00;4.10;99.90
324;DHT22;149;51.094;17.002;2023-03-11T13:40:27;3.80;99.90
324;DHT22;149;51.094;17.002;2023-03-11T13:43:02;4.00;99.90
324;DHT22;149;51.094;17.002;2023-03-11T13:45:32;4.10;99.90
324;DHT22;149;51.094;17.002;2023-03-11T13:48:13;4.10;99.90
324;DHT22;149;51.094;17.002;2023-03-11T13:50:54;4.00;99.90
324;DHT22;149;51.094;17.002;2023-03-11T13:53:28;4.20;99.90
324;DHT22;149;51.094;17.002;2023-03-11T13:55:56;4.10;99.90
324;DHT22;149;51.094;17.002;2023-03-11T13:58:25;3.80;99.90
324;DHT22;149;51.094;17.002;2023-03-11T14:00:57;3.70;99.90
324;DHT22;149;51.094;17.002;2023-03-11T14:03:28;3.60;99.90
324;DHT22;149;51.094;17.002;2023-03-11T14:05:59;3.50;99.90
324;DHT22;149;51.094;17.002;2023-03-11T14:08:29;3.40;99.90
324;DHT22;149;51.094;17.002;2023-03-11T14:13:36;3.50;99.90
324;DHT22;149;51.094;17.002;2023-03-11T14:18:46;3.30;99.90
324;DHT22;149;51.094;17.002;2023-03-11T14:21:18;3.30;99.90
324;DHT22;149;51.094;17.002;2023-03-11T14:23:48;3.20;99.90
324;DHT22;149;51.094;17.002;2023-03-11T14:26:21;3.30;99.90
324;DHT22;149;51.094;17.002;2023-03-11T14:28:53;3.30;99.90
324;DHT22;149;51.094;17.002;2023-03-11T14:31:32;3.20;99.90
324;DHT22;149;51.094;17.002;2023-03-11T14:34:04;3.30;99.90
324;DHT22;149;51.094;17.002;2023-03-11T14:36:53;3.20;99.90
324;DHT22;149;51.094;17.002;2023-03-11T14:39:36;3.20;99.90
324;DHT22;149;51.094;17.002;2023-03-11T14:42:35;3.20;99.90
324;DHT22;149;51.094;17.002;2023-03-11T14:45:10;3.10;99.90
324;DHT22;149;51.094;17.002;2023-03-11T14:50:27;3.00;99.90
324;DHT22;149;51.094;17.002;2023-03-11T14:53:20;2.90;99.90
324;DHT22;149;51.094;17.002;2023-03-11T14:56:06;2.90;99.90
324;DHT22;149;51.094;17.002;2023-03-11T14:58:38;2.90;99.90
324;DHT22;149;51.094;17.002;2023-03-11T15:01:20;3.00;99.90
324;DHT22;149;51.094;17.002;2023-03-11T15:06:26;3.20;99.90
324;DHT22;149;51.094;17.002;2023-03-11T15:09:04;3.30;99.90
324;DHT22;149;51.094;17.002;2023-03-11T15:11:53;3.40;99.90
324;DHT22;149;51.094;17.002;2023-03-11T15:14:24;3.50;99.90
324;DHT22;149;51.094;17.002;2023-03-11T15:16:52;3.40;99.90
324;DHT22;149;51.094;17.002;2023-03-11T15:19:30;3.40;99.90
324;DHT22;149;51.094;17.002;2023-03-11T15:22:30;3.40;99.90
324;DHT22;149;51.094;17.002;2023-03-11T15:25:00;3.30;99.90
324;DHT22;149;51.094;17.002;2023-03-11T15:27:31;3.40;99.90
324;DHT22;149;51.094;17.002;2023-03-11T15:30:00;3.50;99.90
324;DHT22;149;51.094;17.002;2023-03-11T15:37:33;3.50;99.90
324;DHT22;149;51.094;17.002;2023-03-11T15:42:45;3.50;99.90
324;DHT22;149;51.094;17.002;2023-03-11T15:47:43;3.40;99.90
324;DHT22;149;51.094;17.002;2023-03-11T15:50:25;3.40;99.90
324;DHT22;149;51.094;17.002;2023-03-11T15:53:16;3.40;99.90
324;DHT22;149;51.094;17.002;2023-03-11T15:55:44;3.40;99.90
324;DHT22;149;51.094;17.002;2023-03-11T15:58:14;3.30;99.90
324;DHT22;149;51.094;17.002;2023-03-11T16:00:46;3.20;99.90
324;DHT22;149;51.094;17.002;2023-03-11T16:03:14;3.20;99.90
324;DHT22;149;51.094;17.002;2023-03-11T16:05:41;3.20;99.90
324;DHT22;149;51.094;17.002;2023-03-11T16:08:09;3.20;99.90
324;DHT22;149;51.094;17.002;2023-03-11T16:10:36;3.20;99.90
324;DHT22;149;51.094;17.002;2023-03-11T16:13:03;3.30;99.90
324;DHT22;149;51.094;17.002;2023-03-11T16:15:33;3.20;99.90
324;DHT22;149;51.094;17.002;2023-03-11T16:18:04;3.20;99.90
324;DHT22;149;51.094;17.002;2023-03-11T16:23:03;3.20;99.90
324;DHT22;149;51.094;17.002;2023-03-11T16:25:33;3.20;99.90
324;DHT22;149;51.094;17.002;2023-03-11T16:28:02;3.20;99.90
324;DHT22;149;51.094;17.002;2023-03-11T16:30:31;3.10;99.90
324;DHT22;149;51.094;17.002;2023-03-11T16:32:58;3.10;99.90
324;DHT22;149;51.094;17.002;2023-03-11T16:35:29;3.10;99.90
324;DHT22;149;51.094;17.002;2023-03-11T16:37:56;3.00;99.90
324;DHT22;149;51.094;17.002;2023-03-11T16:40:26;3.00;99.90
324;DHT22;149;51.094;17.002;2023-03-11T16:42:56;3.00;99.90
324;DHT22;149;51.094;17.002;2023-03-11T16:45:24;3.00;99.90
324;DHT22;149;51.094;17.002;2023-03-11T16:47:51;2.90;99.90
324;DHT22;149;51.094;17.002;2023-03-11T16:50:18;2.90;99.90
324;DHT22;149;51.094;17.002;2023-03-11T16:52:46;2.90;99.90
324;DHT22;149;51.094;17.002;2023-03-11T16:55:13;2.90;99.90
324;DHT22;149;51.094;17.002;2023-03-11T16:57:41;2.90;99.90
324;DHT22;149;51.094;17.002;2023-03-11T17:00:09;2.90;99.90
324;DHT22;149;51.094;17.002;2023-03-11T17:02:38;2.80;99.90
324;DHT22;149;51.094;17.002;2023-03-11T17:05:06;2.80;99.90
324;DHT22;149;51.094;17.002;2023-03-11T17:07:34;2.80;99.90
324;DHT22;149;51.094;17.002;2023-03-11T17:10:05;2.80;99.90
324;DHT22;149;51.094;17.002;2023-03-11T17:12:33;2.80;99.90
324;DHT22;149;51.094;17.002;2023-03-11T17:15:00;2.70;99.90
324;DHT22;149;51.094;17.002;2023-03-11T17:17:27;2.70;99.90
324;DHT22;149;51.094;17.002;2023-03-11T17:19:54;2.70;99.90
324;DHT22;149;51.094;17.002;2023-03-11T17:22:21;2.70;99.90
324;DHT22;149;51.094;17.002;2023-03-11T17:24:48;2.70;99.90
324;DHT22;149;51.094;17.002;2023-03-11T17:27:15;2.70;99.90
324;DHT22;149;51.094;17.002;2023-03-11T17:29:41;2.70;99.90
324;DHT22;149;51.094;17.002;2023-03-11T17:32:10;2.60;99.90
324;DHT22;149;51.094;17.002;2023-03-11T17:34:43;2.50;99.90
324;DHT22;149;51.094;17.002;2023-03-11T17:37:10;2.40;99.90
324;DHT22;149;51.094;17.002;2023-03-11T17:39:37;2.40;99.90
324;DHT22;149;51.094;17.002;2023-03-11T17:42:04;2.20;99.90
324;DHT22;149;51.094;17.002;2023-03-11T17:44:31;2.20;99.90
324;DHT22;149;51.094;17.002;2023-03-11T17:47:14;2.20;99.90
324;DHT22;149;51.094;17.002;2023-03-11T17:49:40;2.10;99.90
324;DHT22;149;51.094;17.002;2023-03-11T17:52:07;2.00;99.90
324;DHT22;149;51.094;17.002;2023-03-11T17:54:34;1.90;99.90
324;DHT22;149;51.094;17.002;2023-03-11T17:57:01;1.70;99.90
324;DHT22;149;51.094;17.002;2023-03-11T17:59:28;1.70;99.90
324;DHT22;149;51.094;17.002;2023-03-11T18:01:55;1.80;99.90
324;DHT22;149;51.094;17.002;2023-03-11T18:04:22;1.90;99.90
324;DHT22;149;51.094;17.002;2023-03-11T18:06:49;2.00;99.90
324;DHT22;149;51.094;17.002;2023-03-11T18:09:18;2.10;99.90
324;DHT22;149;51.094;17.002;2023-03-11T18:11:44;2.20;99.90
324;DHT22;149;51.094;17.002;2023-03-11T18:14:11;2.30;99.90
324;DHT22;149;51.094;17.002;2023-03-11T18:16:38;2.20;99.90
324;DHT22;149;51.094;17.002;2023-03-11T18:19:05;2.10;99.90
324;DHT22;149;51.094;17.002;2023-03-11T18:21:32;1.90;99.90
324;DHT22;149;51.094;17.002;2023-03-11T18:23:59;1.80;99.90
324;DHT22;149;51.094;17.002;2023-03-11T18:26:28;1.70;99.90
324;DHT22;149;51.094;17.002;2023-03-11T18:28:57;1.60;99.90
324;DHT22;149;51.094;17.002;2023-03-11T18:31:24;1.40;99.90
324;DHT22;149;51.094;17.002;2023-03-11T18:34:01;1.30;99.90
324;DHT22;149;51.094;17.002;2023-03-11T18:36:31;1.20;99.90
324;DHT22;149;51.094;17.002;2023-03-11T18:38:59;1.10;99.90
324;DHT22;149;51.094;17.002;2023-03-11T18:41:30;1.10;99.90
324;DHT22;149;51.094;17.002;2023-03-11T18:43:58;1.00;99.90
324;DHT22;149;51.094;17.002;2023-03-11T18:46:28;1.00;99.90
324;DHT22;149;51.094;17.002;2023-03-11T18:49:00;0.90;99.90
324;DHT22;149;51.094;17.002;2023-03-11T18:51:29;1.00;99.90
324;DHT22;149;51.094;17.002;2023-03-11T18:53:58;0.80;99.90